Time;durP1;ratioP1;P1;durP2;ratioP2;P2;SDS_P1;SDS_P2;PMS_P1;PMS_P2;Temp;Humidity;BMP_temperature;BMP_pressure;BME280_temperature;BME280_humidity;BME280_pressure;Samples;Min_cycle;Max_cycle;Signal;HPM_P1;HPM_P2
2023/06/09 00:00:18;;;;;;;0.47;0.47;;;;;;;19.18;91.25;99223.16;4966640;28;20209;-67
2023/06/09 00:02:47;;;;;;;0.50;0.50;;;;;;;19.23;91.36;99226.28;4974821;28;20239;-67
2023/06/09 00:05:15;;;;;;;0.43;0.43;;;;;;;19.28;90.82;99222.44;4974831;28;20209;-66
2023/06/09 00:07:42;;;;;;;0.80;0.80;;;;;;;19.29;90.84;99229.28;4970255;28;20207;-66
2023/06/09 00:10:09;;;;;;;0.47;0.47;;;;;;;19.29;90.54;99223.25;4973607;28;20223;-66
2023/06/09 00:12:36;;;;;;;0.63;0.63;;;;;;;19.27;90.73;99230.34;4974682;28;20272;-67
2023/06/09 00:15:05;;;;;;;0.50;0.50;;;;;;;19.25;90.63;99229.63;4974510;28;20220;-67
2023/06/09 00:17:32;;;;;;;0.57;0.57;;;;;;;19.24;90.39;99231.38;4973724;28;20207;-66
2023/06/09 00:20:02;;;;;;;0.40;0.40;;;;;;;19.26;89.92;99233.84;4974429;28;20207;-66
2023/06/09 00:22:31;;;;;;;0.40;0.40;;;;;;;19.28;89.72;99226.81;4974629;28;20208;-66
2023/06/09 00:28:26;;;;;;;0.57;0.57;;;;;;;19.25;89.50;99207.06;4973616;28;20216;-66
2023/06/09 00:34:16;;;;;;;0.47;0.47;;;;;;;19.32;89.46;99223.06;4974565;28;20211;-66
2023/06/09 00:36:43;;;;;;;0.40;0.40;;;;;;;19.32;89.24;99223.88;4974013;28;20232;-67
2023/06/09 00:39:09;;;;;;;0.50;0.50;;;;;;;19.31;89.39;99216.19;4974085;28;20224;-66
2023/06/09 00:41:36;;;;;;;0.50;0.50;;;;;;;19.32;89.41;99215.28;4974035;28;20591;-67
2023/06/09 00:44:04;;;;;;;0.50;0.50;;;;;;;19.30;89.62;99217.13;4973999;28;20208;-68
2023/06/09 00:46:31;;;;;;;0.37;0.37;;;;;;;19.28;89.86;99221.59;4974090;28;20295;-66
2023/06/09 00:48:58;;;;;;;0.83;0.83;;;;;;;19.20;90.19;99205.69;4973911;28;20206;-66
2023/06/09 00:51:26;;;;;;;0.80;0.80;;;;;;;19.22;89.82;99211.63;4974013;28;20572;-67
2023/06/09 00:53:53;;;;;;;0.50;0.50;;;;;;;19.23;90.35;99216.72;4973615;28;20204;-66
2023/06/09 00:56:23;;;;;;;0.57;0.57;;;;;;;19.13;90.55;99201.84;4973782;28;20205;-66
2023/06/09 00:58:50;;;;;;;0.33;0.33;;;;;;;19.19;90.44;99222.25;4973587;28;20650;-66
2023/06/09 01:01:17;;;;;;;0.50;0.50;;;;;;;19.16;90.91;99218.06;4965912;28;20678;-66
2023/06/09 01:03:46;;;;;;;0.40;0.40;;;;;;;19.13;90.99;99222.63;4973722;28;20646;-66
2023/06/09 01:06:24;;;;;;;0.40;0.40;;;;;;;19.11;90.96;99224.50;4965817;28;20296;-66
2023/06/09 01:12:31;;;;;;;0.97;0.47;;;;;;;19.04;91.24;99218.06;4954623;29;20257;-68
2023/06/09 01:15:19;;;;;;;0.50;0.50;;;;;;;19.03;90.63;99221.63;4954424;29;20209;-66
2023/06/09 01:17:52;;;;;;;0.60;0.60;;;;;;;19.01;91.02;99228.66;4967867;28;20668;-66
2023/06/09 01:20:27;;;;;;;0.47;0.47;;;;;;;18.96;91.41;99225.56;4973245;28;20225;-66
2023/06/09 01:23:06;;;;;;;0.50;0.50;;;;;;;18.81;91.83;99206.63;4973420;28;20261;-66
2023/06/09 01:25:37;;;;;;;0.50;0.50;;;;;;;18.87;92.05;99222.63;4973291;28;20274;-67
2023/06/09 01:28:07;;;;;;;0.40;0.40;;;;;;;18.84;92.19;99222.81;4973184;28;20327;-66
2023/06/09 01:31:02;;;;;;;0.50;0.50;;;;;;;18.77;92.58;99226.75;4973222;28;20208;-67
2023/06/09 01:36:51;;;;;;;0.60;0.60;;;;;;;18.69;92.63;99229.03;4973154;28;20328;-66
2023/06/09 01:39:19;;;;;;;0.67;0.67;;;;;;;18.63;92.68;99229.47;4973053;28;20258;-66
2023/06/09 01:41:48;;;;;;;0.60;0.60;;;;;;;18.62;92.51;99217.41;4973259;28;20278;-67
2023/06/09 01:44:15;;;;;;;0.60;0.60;;;;;;;18.53;92.78;99219.75;4972996;28;20211;-66
2023/06/09 01:46:43;;;;;;;0.80;0.80;;;;;;;18.45;92.75;99215.03;4972877;28;20199;-66
2023/06/09 01:49:15;;;;;;;0.60;0.60;;;;;;;18.38;91.94;99218.16;4972863;28;20254;-66
2023/06/09 01:51:49;;;;;;;0.60;0.60;;;;;;;18.29;91.94;99211.75;4973010;28;20203;-66
2023/06/09 01:55:03;;;;;;;0.60;0.60;;;;;;;18.27;92.15;99217.06;4973055;28;20208;-67
2023/06/09 01:57:36;;;;;;;0.67;0.67;;;;;;;18.21;92.54;99220.06;4972867;28;20253;-66
2023/06/09 02:00:06;;;;;;;0.40;0.40;;;;;;;18.22;92.52;99218.31;4972794;28;20607;-66
2023/06/09 02:03:12;;;;;;;0.47;0.47;;;;;;;18.24;92.41;99211.25;4973108;28;20211;-66
2023/06/09 02:05:41;;;;;;;0.43;0.43;;;;;;;18.12;92.40;99197.31;4972785;28;20683;-66
2023/06/09 02:08:09;;;;;;;0.63;0.63;;;;;;;18.20;92.31;99220.16;4972703;28;20210;-66
2023/06/09 02:10:37;;;;;;;0.50;0.50;;;;;;;18.18;92.70;99212.47;4972449;28;20298;-66
2023/06/09 02:13:13;;;;;;;0.50;0.50;;;;;;;18.16;92.44;99213.47;4972756;28;20654;-66
2023/06/09 02:15:40;;;;;;;0.50;0.50;;;;;;;18.16;91.99;99223.84;4972472;28;20214;-66
2023/06/09 02:18:09;;;;;;;0.70;0.70;;;;;;;18.06;91.12;99207.25;4972589;28;20715;-66
2023/06/09 02:20:36;;;;;;;0.40;0.40;;;;;;;17.96;91.01;99200.97;4973308;28;20207;-66
2023/06/09 02:23:03;;;;;;;0.50;0.50;;;;;;;17.98;91.06;99209.47;4972653;28;20203;-67
2023/06/09 02:25:32;;;;;;;0.60;0.60;;;;;;;17.91;91.67;99205.59;4972539;28;20210;-66
2023/06/09 02:27:58;;;;;;;0.50;0.50;;;;;;;17.74;92.22;99191.09;4972687;28;20235;-66
2023/06/09 02:30:27;;;;;;;0.60;0.60;;;;;;;17.82;92.39;99210.44;4972657;28;20263;-66
2023/06/09 02:32:55;;;;;;;0.60;0.60;;;;;;;17.80;92.96;99207.09;4956110;28;20273;-66
2023/06/09 02:35:21;;;;;;;0.50;0.50;;;;;;;17.78;92.86;99203.78;4972626;28;20208;-67
2023/06/09 02:37:49;;;;;;;0.60;0.60;;;;;;;17.76;93.00;99205.66;4972509;28;20203;-66
2023/06/09 02:40:15;;;;;;;0.40;0.40;;;;;;;17.77;93.21;99202.09;4974260;28;20254;-66
2023/06/09 02:42:42;;;;;;;0.50;0.50;;;;;;;17.75;93.49;99209.16;4976341;28;20675;-66
2023/06/09 02:45:10;;;;;;;0.57;0.57;;;;;;;17.77;93.64;99211.66;4975894;28;20203;-66
2023/06/09 02:47:38;;;;;;;0.33;0.33;;;;;;;17.71;94.17;99207.69;4976183;28;20211;-65
2023/06/09 02:50:06;;;;;;;0.50;0.50;;;;;;;17.67;94.74;99201.00;4976119;28;20203;-66
2023/06/09 02:52:34;;;;;;;0.53;0.53;;;;;;;17.69;94.76;99206.97;4976209;28;20679;-66
2023/06/09 02:55:02;;;;;;;0.50;0.50;;;;;;;17.69;94.92;99203.53;4976001;28;20286;-66
2023/06/09 02:57:30;;;;;;;0.63;0.63;;;;;;;17.67;95.11;99210.56;4975822;28;20286;-66
2023/06/09 02:59:58;;;;;;;0.50;0.50;;;;;;;17.65;95.35;99202.88;4975680;28;20271;-66
2023/06/09 03:02:26;;;;;;;0.70;0.70;;;;;;;17.65;95.45;99212.41;4975535;28;20200;-66
2023/06/09 03:04:55;;;;;;;0.50;0.50;;;;;;;17.64;95.63;99214.16;4975594;28;20209;-66
2023/06/09 03:07:21;;;;;;;0.30;0.30;;;;;;;17.63;95.73;99212.53;4976035;28;20627;-66
2023/06/09 03:09:49;;;;;;;0.50;0.50;;;;;;;17.64;95.52;99211.56;4975766;28;20207;-66
2023/06/09 03:12:16;;;;;;;0.37;0.37;;;;;;;17.61;95.75;99211.75;4975915;28;20756;-66
2023/06/09 03:14:43;;;;;;;0.70;0.70;;;;;;;17.61;95.73;99209.16;4975749;28;20215;-66
2023/06/09 03:17:09;;;;;;;0.50;0.50;;;;;;;17.55;95.73;99209.56;4975649;28;20679;-67
2023/06/09 03:19:36;;;;;;;0.40;0.40;;;;;;;17.61;96.02;99219.53;4975483;28;20718;-66
2023/06/09 03:22:05;;;;;;;0.50;0.50;;;;;;;17.61;96.87;99216.16;4975500;28;20274;-66
2023/06/09 03:24:33;;;;;;;0.47;0.47;;;;;;;17.61;97.14;99219.53;4975577;28;20203;-66
2023/06/09 03:27:00;;;;;;;0.60;0.60;;;;;;;17.59;97.35;99223.16;4975138;28;20270;-66
2023/06/09 03:29:28;;;;;;;0.60;0.60;;;;;;;17.56;97.50;99213.81;4975447;28;20698;-66
2023/06/09 03:31:55;;;;;;;0.40;0.40;;;;;;;17.51;98.03;99208.03;4975272;28;20671;-66
2023/06/09 03:34:22;;;;;;;0.57;0.57;;;;;;;17.58;98.18;99222.31;4970376;28;20212;-66
2023/06/09 03:36:49;;;;;;;0.50;0.50;;;;;;;17.64;98.19;99216.75;4970423;28;20290;-66
2023/06/09 03:39:17;;;;;;;0.67;0.67;;;;;;;17.70;98.63;99220.75;4974690;28;20227;-67
2023/06/09 03:41:44;;;;;;;0.50;0.50;;;;;;;17.73;98.49;99215.38;4975066;28;20259;-66
2023/06/09 03:44:44;;;;;;;0.80;0.80;;;;;;;17.86;98.69;99225.81;4975032;28;20202;-67
2023/06/09 03:47:11;;;;;;;0.60;0.60;;;;;;;17.94;98.09;99213.19;4974541;28;20210;-66
2023/06/09 03:49:38;;;;;;;1.00;1.00;;;;;;;17.99;97.35;99216.34;4975279;28;20230;-66
2023/06/09 03:52:06;;;;;;;0.50;0.50;;;;;;;18.01;97.12;99219.66;4973456;28;20583;-66
2023/06/09 03:54:34;;;;;;;0.60;0.60;;;;;;;18.03;97.55;99220.41;4978483;28;20199;-66
2023/06/09 03:57:01;;;;;;;0.33;0.33;;;;;;;18.05;98.34;99221.97;4983313;28;20306;-66
2023/06/09 03:59:28;;;;;;;0.60;0.60;;;;;;;18.15;99.04;99233.44;4974649;28;20219;-66
2023/06/09 04:01:55;;;;;;;0.40;0.40;;;;;;;18.21;99.08;99229.59;4974537;28;20200;-66
2023/06/09 04:04:21;;;;;;;0.50;0.50;;;;;;;18.29;99.02;99224.75;4973816;28;20275;-66
2023/06/09 04:06:48;;;;;;;0.50;0.50;;;;;;;18.39;98.58;99231.00;4974179;28;20278;-66
2023/06/09 04:09:15;;;;;;;0.53;0.53;;;;;;;18.51;99.17;99226.84;4974318;28;20255;-66
2023/06/09 04:11:44;;;;;;;0.50;0.50;;;;;;;18.66;99.10;99221.47;4974529;28;20584;-66
2023/06/09 04:14:11;;;;;;;0.53;0.53;;;;;;;18.81;98.62;99222.19;4974182;28;20568;-66
2023/06/09 04:16:37;;;;;;;0.57;0.57;;;;;;;18.97;98.38;99216.81;4974783;28;20679;-66
2023/06/09 04:19:04;;;;;;;0.50;0.50;;;;;;;19.16;97.93;99223.25;4977201;28;20587;-67
2023/06/09 04:21:32;;;;;;;0.60;0.60;;;;;;;19.35;97.46;99218.47;4973798;28;20256;-66
2023/06/09 04:23:59;;;;;;;0.50;0.50;;;;;;;19.53;96.26;99221.59;4973574;28;20248;-67
2023/06/09 04:26:43;;;;;;;0.43;0.43;;;;;;;19.74;94.42;99225.28;4973879;28;20678;-67
2023/06/09 04:29:10;;;;;;;0.70;0.70;;;;;;;19.82;94.15;99222.16;4972335;28;20197;-67
2023/06/09 04:31:39;;;;;;;0.40;0.40;;;;;;;20.02;93.52;99225.94;4973171;28;20212;-67
2023/06/09 04:34:12;;;;;;;0.50;0.50;;;;;;;20.19;91.74;99231.63;4977608;28;20269;-67
2023/06/09 04:36:39;;;;;;;0.50;0.50;;;;;;;20.40;93.19;99230.09;4972848;28;20653;-67
2023/06/09 04:39:07;;;;;;;0.53;0.53;;;;;;;20.57;90.27;99231.47;4973327;28;20229;-67
2023/06/09 04:41:34;;;;;;;0.40;0.40;;;;;;;20.80;88.98;99233.19;4968904;28;20217;-66
2023/06/09 04:44:04;;;;;;;0.60;0.60;;;;;;;21.04;88.51;99224.44;4970358;28;20678;-67
2023/06/09 04:46:31;;;;;;;0.30;0.30;;;;;;;21.23;86.19;99225.56;4970837;28;20726;-71
2023/06/09 04:49:00;;;;;;;0.60;0.60;;;;;;;21.38;86.19;99219.22;4970209;28;20268;-67
2023/06/09 04:51:27;;;;;;;0.40;0.40;;;;;;;21.56;84.50;99222.16;4968906;28;20298;-67
2023/06/09 04:53:54;;;;;;;0.47;0.47;;;;;;;21.74;84.87;99231.16;4965003;28;20215;-68
2023/06/09 04:56:21;;;;;;;0.30;0.30;;;;;;;21.91;83.64;99224.63;4964709;28;20314;-66
2023/06/09 04:58:48;;;;;;;0.53;0.53;;;;;;;22.12;82.89;99224.69;4967056;28;20234;-66
2023/06/09 05:01:16;;;;;;;0.40;0.40;;;;;;;22.34;82.75;99225.47;4969654;28;20219;-67
2023/06/09 05:03:45;;;;;;;0.40;0.40;;;;;;;22.54;82.12;99226.44;4971380;28;20215;-67
2023/06/09 05:06:12;;;;;;;0.30;0.30;;;;;;;22.76;79.68;99231.59;4971684;28;20222;-67
2023/06/09 05:08:39;;;;;;;0.30;0.30;;;;;;;22.96;79.95;99228.16;4971328;28;20204;-67
2023/06/09 05:11:05;;;;;;;0.43;0.43;;;;;;;23.14;77.41;99232.78;4970989;28;20211;-67
2023/06/09 05:13:32;;;;;;;0.30;0.30;;;;;;;23.34;78.09;99231.94;4969781;28;20635;-68
2023/06/09 05:15:59;;;;;;;0.30;0.30;;;;;;;23.54;74.82;99231.09;4970812;28;20324;-67
2023/06/09 05:18:27;;;;;;;0.30;0.30;;;;;;;23.56;74.77;99234.38;4969808;28;20219;-68
2023/06/09 05:20:54;;;;;;;0.60;0.53;;;;;;;23.74;75.25;99235.44;4970443;28;20231;-68
2023/06/09 05:23:21;;;;;;;0.43;0.43;;;;;;;23.90;74.91;99243.63;4970717;28;20215;-67
2023/06/09 05:25:47;;;;;;;0.67;0.40;;;;;;;24.07;71.79;99243.94;4961687;28;20644;-67
2023/06/09 05:28:14;;;;;;;0.50;0.50;;;;;;;24.13;71.02;99235.56;4967167;28;20705;-68
2023/06/09 05:30:41;;;;;;;0.40;0.40;;;;;;;24.31;72.27;99244.38;4970918;28;20234;-68
2023/06/09 05:33:08;;;;;;;0.30;0.30;;;;;;;24.50;72.62;99244.41;4970393;28;20210;-67
2023/06/09 05:35:36;;;;;;;0.30;0.30;;;;;;;24.62;69.23;99235.41;4971022;28;20225;-69
2023/06/09 05:38:03;;;;;;;0.30;0.30;;;;;;;24.81;68.82;99243.28;4968555;28;20210;-69
2023/06/09 05:40:30;;;;;;;0.30;0.30;;;;;;;24.89;66.93;99240.81;4970072;28;20222;-67
2023/06/09 05:42:56;;;;;;;0.97;0.70;;;;;;;25.04;66.20;99236.78;4970218;28;20263;-67
2023/06/09 05:45:23;;;;;;;0.40;0.40;;;;;;;25.16;65.89;99236.63;4971669;28;20678;-66
2023/06/09 05:47:50;;;;;;;0.33;0.33;;;;;;;25.37;66.30;99240.69;4971366;28;20200;-67
2023/06/09 05:50:17;;;;;;;0.60;0.60;;;;;;;25.53;64.31;99237.47;4973093;28;20207;-69
2023/06/09 05:52:45;;;;;;;0.43;0.43;;;;;;;25.76;65.29;99245.81;4972560;28;20199;-69
2023/06/09 05:55:12;;;;;;;0.40;0.40;;;;;;;25.87;62.61;99246.44;4971624;28;20684;-68
2023/06/09 05:57:40;;;;;;;0.23;0.23;;;;;;;26.07;63.75;99242.72;4971520;28;20295;-69
2023/06/09 06:00:09;;;;;;;0.50;0.50;;;;;;;26.26;64.88;99240.97;4975510;28;20234;-68
2023/06/09 06:02:38;;;;;;;0.43;0.43;;;;;;;26.49;62.34;99242.19;4971710;28;20717;-67
2023/06/09 06:05:05;;;;;;;0.40;0.40;;;;;;;26.55;59.94;99238.97;4971002;28;20199;-67
2023/06/09 06:07:32;;;;;;;0.40;0.40;;;;;;;26.59;58.71;99248.19;4966552;28;20250;-67
2023/06/09 06:10:00;;;;;;;0.40;0.40;;;;;;;26.69;60.07;99243.66;4970818;28;20203;-67
2023/06/09 06:12:27;;;;;;;0.30;0.30;;;;;;;26.72;60.38;99243.34;4970397;28;20212;-68
2023/06/09 06:14:54;;;;;;;0.30;0.30;;;;;;;26.84;60.43;99244.00;4972593;28;20234;-67
2023/06/09 06:17:20;;;;;;;0.30;0.30;;;;;;;27.08;61.39;99237.06;4972661;28;21523;-68
2023/06/09 06:19:47;;;;;;;0.63;0.63;;;;;;;26.99;58.53;99232.75;4973483;28;20223;-67
2023/06/09 06:22:14;;;;;;;0.30;0.30;;;;;;;27.11;59.88;99231.50;4972642;28;20218;-68
2023/06/09 06:24:40;;;;;;;0.40;0.40;;;;;;;27.10;58.46;99235.13;4973868;28;20215;-67
2023/06/09 06:27:09;;;;;;;0.50;0.50;;;;;;;26.74;57.41;99233.53;4972154;28;20250;-67
2023/06/09 06:29:38;;;;;;;0.30;0.30;;;;;;;26.79;58.14;99230.41;4973014;28;20214;-67
2023/06/09 06:32:06;;;;;;;0.37;0.37;;;;;;;26.79;58.15;99230.41;4973392;28;20258;-67
2023/06/09 06:34:33;;;;;;;0.30;0.30;;;;;;;26.58;60.53;99228.13;4973581;28;20207;-67
2023/06/09 06:37:00;;;;;;;0.37;0.37;;;;;;;26.75;59.42;99229.94;4973523;28;20290;-67
2023/06/09 06:39:27;;;;;;;0.57;0.57;;;;;;;26.96;58.51;99225.16;4971848;28;20262;-67
2023/06/09 06:41:54;;;;;;;0.30;0.30;;;;;;;27.07;57.87;99230.19;4973401;28;20252;-67
2023/06/09 06:44:22;;;;;;;0.20;0.20;;;;;;;27.11;57.46;99223.59;4971949;28;20308;-67
2023/06/09 06:46:49;;;;;;;0.63;0.40;;;;;;;27.22;58.33;99221.69;4972667;28;20274;-67
2023/06/09 06:49:15;;;;;;;0.47;0.47;;;;;;;27.49;58.64;99213.66;4972470;28;22139;-67
2023/06/09 06:51:42;;;;;;;0.30;0.30;;;;;;;27.79;57.88;99221.00;4972229;28;20259;-67
2023/06/09 06:54:09;;;;;;;0.50;0.50;;;;;;;28.09;57.00;99217.81;4973135;28;20215;-67
2023/06/09 06:56:36;;;;;;;0.47;0.47;;;;;;;28.31;55.51;99219.00;4972893;28;20200;-68
2023/06/09 06:59:03;;;;;;;0.47;0.40;;;;;;;28.47;55.24;99215.56;4973948;28;20691;-68
2023/06/09 07:01:32;;;;;;;0.57;0.57;;;;;;;28.51;52.40;99211.59;4973291;28;20604;-68
2023/06/09 07:03:59;;;;;;;0.87;0.87;;;;;;;28.45;54.69;99217.53;4974175;28;20210;-68
2023/06/09 07:06:27;;;;;;;0.57;0.57;;;;;;;28.45;53.53;99207.81;4973757;28;20214;-68
2023/06/09 07:08:55;;;;;;;0.47;0.47;;;;;;;28.77;54.63;99211.47;4975223;28;20202;-67
2023/06/09 07:11:22;;;;;;;0.43;0.43;;;;;;;28.77;52.37;99209.66;4974780;28;20203;-67
2023/06/09 07:13:51;;;;;;;0.30;0.30;;;;;;;28.82;49.74;99212.59;4973827;28;20231;-66
2023/06/09 07:16:18;;;;;;;0.30;0.30;;;;;;;28.69;50.36;99214.13;4974429;28;20295;-67
2023/06/09 07:18:46;;;;;;;0.57;0.57;;;;;;;28.82;49.94;99199.41;4974496;28;20263;-67
2023/06/09 07:21:13;;;;;;;0.30;0.30;;;;;;;28.94;51.52;99192.81;4974832;28;20223;-67
2023/06/09 07:23:39;;;;;;;0.40;0.40;;;;;;;28.86;51.06;99190.16;4974679;28;20208;-67
2023/06/09 07:26:06;;;;;;;0.77;0.60;;;;;;;28.94;53.65;99192.81;4979813;28;20229;-67
2023/06/09 07:28:33;;;;;;;0.35;0.35;;;;;;;29.12;52.47;99190.78;4974095;28;20782;-67
2023/06/09 07:31:00;;;;;;;0.40;0.40;;;;;;;29.30;52.66;99187.13;4974822;28;20199;-67
2023/06/09 07:33:32;;;;;;;0.35;0.35;;;;;;;29.54;49.55;99194.94;4974944;28;20196;-67
2023/06/09 07:36:00;;;;;;;0.75;0.75;;;;;;;29.56;49.20;99198.25;4974670;28;20570;-66
2023/06/09 07:38:27;;;;;;;1.25;0.75;;;;;;;29.33;48.69;99190.25;4974346;28;20208;-67
2023/06/09 07:40:55;;;;;;;0.52;0.40;;;;;;;29.35;49.53;99190.91;4974201;28;20310;-67
2023/06/09 07:43:22;;;;;;;0.45;0.45;;;;;;;29.59;49.04;99195.28;4974443;28;20294;-67
2023/06/09 07:45:49;;;;;;;0.47;0.47;;;;;;;29.54;49.50;99187.03;4974166;28;20266;-67
2023/06/09 07:48:16;;;;;;;0.50;0.50;;;;;;;29.58;48.89;99190.97;4973942;28;20207;-67
2023/06/09 07:50:43;;;;;;;0.40;0.40;;;;;;;29.75;49.21;99191.72;4973280;28;20199;-68
2023/06/09 07:53:11;;;;;;;0.50;0.50;;;;;;;29.04;47.75;99198.72;4972879;28;20286;-66
2023/06/09 07:55:37;;;;;;;0.50;0.50;;;;;;;28.82;50.96;99198.59;4973007;28;20211;-68
2023/06/09 07:58:04;;;;;;;0.55;0.52;;;;;;;29.04;49.89;99188.19;4973176;28;20207;-67
2023/06/09 08:00:31;;;;;;;0.65;0.40;;;;;;;28.85;49.58;99185.91;4973598;28;20226;-67
2023/06/09 08:03:01;;;;;;;0.22;0.22;;;;;;;28.90;51.65;99191.50;4973069;28;20642;-67
2023/06/09 08:05:28;;;;;;;0.60;0.60;;;;;;;29.07;50.81;99193.13;4972602;28;20214;-65
2023/06/09 08:07:55;;;;;;;0.30;0.30;;;;;;;29.03;51.43;99191.78;4974498;28;20665;-65
2023/06/09 08:10:23;;;;;;;0.40;0.40;;;;;;;29.15;49.25;99200.16;4974555;28;20207;-65
2023/06/09 08:12:51;;;;;;;0.45;0.45;;;;;;;29.39;51.72;99186.94;4974507;28;20211;-65
2023/06/09 08:15:27;;;;;;;1.23;0.40;;;;;;;29.66;50.42;99193.59;4974845;28;20203;-65
2023/06/09 08:17:54;;;;;;;0.50;0.50;;;;;;;29.91;50.30;99189.03;4974721;28;20206;-65
2023/06/09 08:20:20;;;;;;;0.60;0.60;;;;;;;30.12;48.59;99187.38;4974040;28;20228;-65
2023/06/09 08:22:47;;;;;;;0.30;0.30;;;;;;;30.11;46.29;99188.38;4974347;28;20211;-65
2023/06/09 08:25:14;;;;;;;0.50;0.50;;;;;;;29.68;46.55;99188.97;4973853;28;20258;-65
2023/06/09 08:27:42;;;;;;;0.38;0.38;;;;;;;29.26;48.25;99172.63;4974388;28;20318;-65
2023/06/09 08:30:09;;;;;;;0.50;0.50;;;;;;;29.28;50.13;99179.38;4974541;28;20206;-65
2023/06/09 08:32:36;;;;;;;0.70;0.70;;;;;;;29.50;49.72;99177.81;4971290;28;20285;-65
2023/06/09 08:35:07;;;;;;;0.40;0.40;;;;;;;29.71;49.10;99175.41;4972288;28;20646;-65
2023/06/09 08:37:35;;;;;;;0.43;0.43;;;;;;;29.75;49.62;99174.06;4973289;28;20235;-65
2023/06/09 08:40:04;;;;;;;0.55;0.52;;;;;;;29.56;49.24;99171.84;4973738;28;20675;-65
2023/06/09 08:42:32;;;;;;;0.50;0.50;;;;;;;29.26;51.40;99175.25;4973810;28;20751;-65
2023/06/09 08:45:03;;;;;;;0.40;0.40;;;;;;;29.58;49.92;99164.56;4973922;28;20204;-65
2023/06/09 08:47:31;;;;;;;0.38;0.38;;;;;;;29.96;47.23;99169.00;4973958;28;20647;-65
2023/06/09 08:49:59;;;;;;;0.40;0.40;;;;;;;30.13;48.53;99159.97;4973863;28;20267;-67
2023/06/09 08:52:27;;;;;;;0.52;0.50;;;;;;;30.10;48.48;99152.38;4973434;28;20215;-65
2023/06/09 08:54:54;;;;;;;0.40;0.40;;;;;;;30.30;47.54;99165.94;4973656;28;20627;-65
2023/06/09 08:57:21;;;;;;;0.30;0.30;;;;;;;30.01;46.25;99161.38;4973402;28;20591;-65
2023/06/09 08:59:50;;;;;;;0.30;0.30;;;;;;;29.52;46.66;99166.09;4972980;28;20207;-65
2023/06/09 09:02:18;;;;;;;0.50;0.50;;;;;;;29.53;47.21;99158.97;4972203;28;20256;-65
2023/06/09 09:04:45;;;;;;;0.30;0.30;;;;;;;29.74;47.94;99153.06;4973316;28;20246;-65
2023/06/09 09:07:13;;;;;;;1.20;0.40;;;;;;;29.70;47.23;99150.78;4973198;28;20203;-65
2023/06/09 09:09:40;;;;;;;0.55;0.55;;;;;;;29.85;49.76;99142.16;4973438;28;20207;-65
2023/06/09 09:12:12;;;;;;;0.40;0.40;;;;;;;30.10;49.79;99141.81;4973230;28;20200;-65
2023/06/09 09:14:40;;;;;;;0.30;0.30;;;;;;;30.37;50.51;99144.91;4973307;28;20587;-65
2023/06/09 09:17:09;;;;;;;0.60;0.60;;;;;;;30.68;47.33;99142.97;4976394;28;20761;-65
2023/06/09 09:19:39;;;;;;;0.40;0.40;;;;;;;30.82;46.75;99138.72;4973246;28;20289;-65
2023/06/09 09:22:08;;;;;;;0.60;0.60;;;;;;;30.59;44.52;99144.06;4973011;28;20732;-64
2023/06/09 09:24:35;;;;;;;0.70;0.55;;;;;;;30.37;44.93;99129.03;4972962;28;20203;-64
2023/06/09 09:27:04;;;;;;;0.28;0.28;;;;;;;30.32;45.53;99136.66;4972411;28;20686;-65
2023/06/09 09:29:40;;;;;;;0.30;0.30;;;;;;;30.38;46.04;99130.66;4972420;28;20211;-65
2023/06/09 09:32:08;;;;;;;1.55;0.30;;;;;;;30.43;47.51;99123.06;4971026;28;20254;-66
2023/06/09 09:34:35;;;;;;;0.32;0.32;;;;;;;30.41;47.31;99125.03;4973004;28;20207;-67
2023/06/09 09:37:07;;;;;;;0.30;0.30;;;;;;;30.15;47.88;99115.66;4971905;28;20672;-67
2023/06/09 09:39:34;;;;;;;0.30;0.30;;;;;;;30.20;46.26;99123.88;4973497;28;20207;-67
2023/06/09 09:42:03;;;;;;;0.50;0.50;;;;;;;30.15;46.46;99120.09;4972667;28;20682;-66
2023/06/09 09:44:36;;;;;;;0.47;0.47;;;;;;;29.96;44.89;99120.59;4972630;28;20204;-66
2023/06/09 09:47:05;;;;;;;0.30;0.30;;;;;;;30.01;44.51;99118.25;4973067;28;20266;-66
2023/06/09 09:49:32;;;;;;;0.75;0.75;;;;;;;30.01;46.38;99121.72;4971409;28;20306;-66
2023/06/09 09:51:59;;;;;;;0.30;0.30;;;;;;;30.09;46.80;99116.34;4972768;28;20687;-66
2023/06/09 09:54:29;;;;;;;0.40;0.40;;;;;;;29.87;47.14;99106.63;4972581;28;20242;-66
2023/06/09 09:56:58;;;;;;;1.48;0.40;;;;;;;30.15;46.55;99109.53;4972827;28;20210;-67
2023/06/09 09:59:26;;;;;;;0.40;0.40;;;;;;;30.31;46.61;99108.59;4969634;28;20202;-66
2023/06/09 10:01:55;;;;;;;0.30;0.30;;;;;;;30.52;45.67;99101.63;4972567;28;20606;-66
2023/06/09 10:04:24;;;;;;;0.40;0.40;;;;;;;30.64;46.14;99107.28;4972674;28;20245;-66
2023/06/09 10:06:56;;;;;;;0.57;0.55;;;;;;;30.55;45.85;99105.75;4972368;28;20266;-66
2023/06/09 10:09:25;;;;;;;0.63;0.63;;;;;;;30.52;47.56;99100.81;4965898;28;20645;-66
2023/06/09 10:11:54;;;;;;;0.30;0.30;;;;;;;30.42;49.34;99097.59;4972467;28;20192;-66
2023/06/09 10:14:21;;;;;;;0.63;0.50;;;;;;;30.55;47.82;99092.50;4972615;28;20207;-66
2023/06/09 10:16:49;;;;;;;0.50;0.30;;;;;;;30.72;48.74;99091.34;4972319;28;20282;-67
2023/06/09 10:19:17;;;;;;;0.40;0.40;;;;;;;30.47;45.86;99097.91;4972184;28;20210;-66
2023/06/09 10:21:44;;;;;;;0.52;0.52;;;;;;;30.08;46.56;99085.63;4971441;28;20875;-66
2023/06/09 10:24:12;;;;;;;0.35;0.35;;;;;;;30.03;47.67;99087.16;4969874;28;20219;-66
2023/06/09 10:26:39;;;;;;;0.40;0.40;;;;;;;30.13;49.47;99085.09;4972373;28;20291;-66
2023/06/09 10:29:09;;;;;;;0.40;0.40;;;;;;;29.65;47.40;99075.69;4972053;28;20227;-66
2023/06/09 10:31:39;;;;;;;0.60;0.60;;;;;;;29.68;47.21;99075.34;4972425;28;20207;-66
2023/06/09 10:34:08;;;;;;;0.28;0.28;;;;;;;29.71;48.35;99074.97;4972498;28;20208;-66
2023/06/09 10:36:37;;;;;;;0.38;0.38;;;;;;;29.66;49.56;99072.06;4972550;28;20191;-66
2023/06/09 10:39:17;;;;;;;0.40;0.40;;;;;;;29.50;49.02;99072.16;4970902;28;20200;-66
2023/06/09 10:41:53;;;;;;;0.20;0.20;;;;;;;29.41;49.22;99073.19;4972493;28;20690;-66
2023/06/09 10:44:41;;;;;;;1.27;0.47;;;;;;;29.48;47.97;99064.41;4972381;28;20239;-66
2023/06/09 10:47:08;;;;;;;0.80;0.80;;;;;;;29.70;49.41;99062.75;4970898;28;20619;-66
2023/06/09 10:49:38;;;;;;;0.40;0.40;;;;;;;29.80;48.84;99063.34;4972179;28;20654;-67
2023/06/09 10:52:06;;;;;;;0.82;0.82;;;;;;;29.55;48.22;99067.16;4971961;28;20200;-67
2023/06/09 10:54:35;;;;;;;0.40;0.40;;;;;;;29.35;47.23;99048.28;4972383;28;20208;-67
2023/06/09 10:57:06;;;;;;;0.25;0.25;;;;;;;29.65;48.35;99059.84;4972430;28;20208;-67
2023/06/09 11:00:16;;;;;;;0.32;0.32;;;;;;;29.73;49.33;99051.03;4972208;28;20204;-67
2023/06/09 11:02:47;;;;;;;0.40;0.40;;;;;;;29.91;49.19;99043.66;4963616;28;20254;-67
2023/06/09 11:05:14;;;;;;;0.40;0.40;;;;;;;29.77;48.82;99053.13;4975951;28;20270;-66
2023/06/09 11:07:47;;;;;;;0.40;0.40;;;;;;;29.87;48.66;99037.91;4975742;28;20195;-66
2023/06/09 11:10:36;;;;;;;0.30;0.30;;;;;;;30.19;48.24;99047.34;4975197;28;20667;-67
2023/06/09 11:13:25;;;;;;;0.30;0.30;;;;;;;30.13;48.65;99043.63;4971946;28;20207;-69
2023/06/09 11:16:00;;;;;;;0.43;0.43;;;;;;;30.38;48.15;99043.38;4972046;28;20671;-69
2023/06/09 11:18:29;;;;;;;0.32;0.32;;;;;;;30.47;47.09;99035.19;4973887;28;20583;-68
2023/06/09 11:21:12;;;;;;;0.50;0.50;;;;;;;30.29;47.76;99037.34;4971297;28;20310;-68
2023/06/09 11:24:03;;;;;;;0.70;0.70;;;;;;;30.08;49.59;99037.22;4971593;28;20203;-68
2023/06/09 11:26:32;;;;;;;0.40;0.40;;;;;;;30.38;47.81;99046.00;4970366;28;20294;-68
2023/06/09 11:29:00;;;;;;;1.55;0.30;;;;;;;30.47;46.79;99039.69;4971135;28;20706;-68
2023/06/09 11:31:29;;;;;;;0.47;0.47;;;;;;;30.44;46.75;99029.44;4972553;28;20250;-68
2023/06/09 11:33:56;;;;;;;0.43;0.40;;;;;;;30.55;47.63;99031.66;4968843;28;20208;-68
2023/06/09 11:36:29;;;;;;;0.82;0.60;;;;;;;30.25;47.51;99029.94;4973851;28;20207;-69
2023/06/09 11:39:06;;;;;;;0.30;0.30;;;;;;;30.16;47.90;99031.84;4972593;28;20219;-68
2023/06/09 11:41:34;;;;;;;0.95;0.95;;;;;;;29.84;46.89;99001.25;4973017;28;20769;-68
2023/06/09 11:44:01;;;;;;;0.80;0.47;;;;;;;29.81;46.16;99016.59;4973278;28;20207;-69
2023/06/09 11:46:34;;;;;;;0.40;0.40;;;;;;;29.74;47.05;99000.63;4971882;28;20211;-68
2023/06/09 11:49:06;;;;;;;0.60;0.60;;;;;;;29.59;46.34;99013.00;4974277;28;20293;-68
2023/06/09 11:51:59;;;;;;;0.25;0.25;;;;;;;29.71;47.46;99014.22;4973490;28;21853;-68
2023/06/09 11:54:46;;;;;;;0.30;0.30;;;;;;;29.91;48.54;99012.75;4973892;28;20679;-68
2023/06/09 11:57:17;;;;;;;0.45;0.45;;;;;;;29.97;47.78;99017.31;4972379;28;20758;-68